createdAt,value
2018-10-12T00:01:14.210Z,24.73
2018-10-12T00:03:43.141Z,22.73
2018-10-12T00:06:12.055Z,23.33
2018-10-12T00:08:41.087Z,23.67
2018-10-12T00:11:09.903Z,25.70
2018-10-12T00:13:38.658Z,25.37
2018-10-12T00:16:07.131Z,24.27
2018-10-12T00:18:36.018Z,24.87
2018-10-12T00:21:04.692Z,24.63
2018-10-12T00:23:33.579Z,24.93
2018-10-12T00:26:02.156Z,24.73
2018-10-12T00:28:30.925Z,24.60
2018-10-12T00:30:59.514Z,25.83
2018-10-12T00:33:28.219Z,23.83
2018-10-12T00:35:57.328Z,24.30
2018-10-12T00:38:25.957Z,24.00
2018-10-12T00:40:54.607Z,25.10
2018-10-12T00:43:23.424Z,23.30
2018-10-12T00:45:52.183Z,25.03
2018-10-12T00:48:20.862Z,25.57
2018-10-12T00:50:49.594Z,25.23
2018-10-12T00:53:18.325Z,25.07
2018-10-12T00:55:47.072Z,25.10
2018-10-12T00:58:15.760Z,24.10
2018-10-12T01:00:44.519Z,25.87
2018-10-12T01:03:13.396Z,23.63
2018-10-12T01:05:42.095Z,24.83
2018-10-12T01:08:11.071Z,25.37
2018-10-12T01:10:39.755Z,24.97
2018-10-12T01:13:08.637Z,24.57
2018-10-12T01:15:37.482Z,23.63
2018-10-12T01:18:06.359Z,23.93
2018-10-12T01:20:35.400Z,25.17
2018-10-12T01:23:03.999Z,23.70
2018-10-12T01:25:32.938Z,22.77
2018-10-12T01:28:01.676Z,24.90
2018-10-12T01:30:30.577Z,23.70
2018-10-12T01:33:05.499Z,25.00
2018-10-12T01:35:34.608Z,24.47
2018-10-12T01:38:03.565Z,26.07
2018-10-12T01:40:32.747Z,26.07
2018-10-12T01:43:01.788Z,24.57
2018-10-12T01:45:30.800Z,24.93
2018-10-12T01:47:59.639Z,24.43
2018-10-12T01:50:28.329Z,25.83
2018-10-12T01:52:57.219Z,25.73
2018-10-12T01:55:25.931Z,25.47
2018-10-12T01:57:54.653Z,25.53
2018-10-12T02:00:23.554Z,23.13
2018-10-12T02:02:52.388Z,24.83
2018-10-12T02:05:21.465Z,25.33
2018-10-12T02:07:50.254Z,24.23
2018-10-12T02:10:19.054Z,24.23
2018-10-12T02:12:47.713Z,23.30
2018-10-12T02:15:16.676Z,23.43
2018-10-12T02:17:45.316Z,22.60
2018-10-12T02:20:14.153Z,22.23
2018-10-12T02:22:43.081Z,22.13
2018-10-12T02:25:12.089Z,22.63
2018-10-12T02:27:40.778Z,22.07
2018-10-12T02:30:10.111Z,22.00
2018-10-12T02:32:39.030Z,23.10
2018-10-12T02:35:08.158Z,21.93
2018-10-12T02:37:37.093Z,21.90
2018-10-12T02:40:06.024Z,23.27
2018-10-12T02:42:34.932Z,23.40
2018-10-12T02:45:03.852Z,22.90
2018-10-12T02:47:32.695Z,22.47
2018-10-12T02:50:01.450Z,22.47
2018-10-12T02:52:30.132Z,21.97
2018-10-12T02:54:58.876Z,21.83
2018-10-12T02:57:27.758Z,21.27
2018-10-12T02:59:56.453Z,21.37
2018-10-12T03:02:25.238Z,22.80
2018-10-12T03:04:54.234Z,22.00
2018-10-12T03:07:23.055Z,22.70
2018-10-12T03:09:51.751Z,22.87
2018-10-12T03:12:20.485Z,24.20
2018-10-12T03:14:49.451Z,23.73
2018-10-12T03:17:18.456Z,23.93
2018-10-12T03:19:47.254Z,22.33
2018-10-12T03:22:15.989Z,21.10
2018-10-12T03:24:44.908Z,22.33
2018-10-12T03:27:13.579Z,22.50
2018-10-12T03:29:42.591Z,22.40
2018-10-12T03:32:11.628Z,21.47
2018-10-12T03:34:40.600Z,20.80
2018-10-12T03:37:09.628Z,21.13
2018-10-12T03:39:38.220Z,21.37
2018-10-12T03:42:07.078Z,20.57
2018-10-12T03:44:35.723Z,19.47
2018-10-12T03:47:04.504Z,18.97
2018-10-12T03:49:33.285Z,19.13
2018-10-12T03:52:05.697Z,19.87
2018-10-12T03:54:34.666Z,19.10
2018-10-12T03:57:04.189Z,18.00
2018-10-12T03:59:32.909Z,18.77
2018-10-12T04:02:01.717Z,18.00
2018-10-12T04:04:30.391Z,17.53
2018-10-12T04:06:59.238Z,17.90
2018-10-12T04:09:27.933Z,18.90
2018-10-12T04:11:56.823Z,18.80
2018-10-12T04:14:25.558Z,19.67
2018-10-12T04:16:54.242Z,19.73
2018-10-12T04:19:22.930Z,18.60
2018-10-12T04:21:51.482Z,18.83
2018-10-12T04:24:20.239Z,19.87
2018-10-12T04:26:48.976Z,19.70
2018-10-12T04:29:17.687Z,19.70
2018-10-12T04:31:46.542Z,19.30
2018-10-12T04:34:15.385Z,20.63
2018-10-12T04:36:44.102Z,20.53
2018-10-12T04:39:23.711Z,19.93
2018-10-12T04:41:52.881Z,19.10
2018-10-12T04:44:21.820Z,19.93
2018-10-12T04:46:50.591Z,19.83
2018-10-12T04:49:19.449Z,19.87
2018-10-12T04:51:51.967Z,20.43
2018-10-12T04:54:21.385Z,21.10
2018-10-12T04:56:50.552Z,20.77
2018-10-12T04:59:19.519Z,20.00
2018-10-12T05:01:48.388Z,22.67
2018-10-12T05:04:17.156Z,22.60
2018-10-12T05:06:46.000Z,21.63
2018-10-12T05:09:15.241Z,21.70
2018-10-12T05:11:44.303Z,20.33
2018-10-12T05:14:13.038Z,21.57
2018-10-12T05:16:41.977Z,21.33
2018-10-12T05:19:10.652Z,21.70
2018-10-12T05:21:39.306Z,21.00
2018-10-12T05:24:07.977Z,24.07
2018-10-12T05:26:36.825Z,23.10
2018-10-12T05:29:05.638Z,21.97
2018-10-12T05:31:34.486Z,21.27
2018-10-12T05:34:03.264Z,21.03
2018-10-12T05:36:32.082Z,22.43
2018-10-12T05:39:37.398Z,21.90
2018-10-12T05:42:26.878Z,22.13
2018-10-12T05:44:55.789Z,23.47
2018-10-12T05:47:24.407Z,25.30
2018-10-12T05:50:02.291Z,25.57
2018-10-12T05:52:32.005Z,28.20
2018-10-12T05:55:01.496Z,30.17
2018-10-12T05:57:31.040Z,28.73
2018-10-12T05:59:59.846Z,30.87
2018-10-12T06:02:28.655Z,32.90
2018-10-12T06:04:57.352Z,31.97
2018-10-12T06:07:26.037Z,29.57
2018-10-12T06:09:54.996Z,27.57
2018-10-12T06:12:23.699Z,29.17
2018-10-12T06:14:52.460Z,27.73
2018-10-12T06:17:21.274Z,27.03
2018-10-12T06:19:49.952Z,26.63
2018-10-12T06:22:18.723Z,25.90
2018-10-12T06:24:47.579Z,27.67
2018-10-12T06:27:16.307Z,25.83
2018-10-12T06:29:45.001Z,25.97
2018-10-12T06:32:13.899Z,26.07
2018-10-12T06:34:42.596Z,25.80
2018-10-12T06:37:11.440Z,24.70
2018-10-12T06:39:40.214Z,23.10
2018-10-12T06:42:09.063Z,23.17
2018-10-12T06:44:37.705Z,23.70
2018-10-12T06:47:06.539Z,21.23
2018-10-12T06:49:35.221Z,21.53
2018-10-12T06:52:03.939Z,20.00
2018-10-12T06:54:32.947Z,19.50
2018-10-12T06:57:01.508Z,18.93
2018-10-12T06:59:30.380Z,19.10
2018-10-12T07:01:59.310Z,18.27
2018-10-12T07:04:28.211Z,17.63
2018-10-12T07:06:57.100Z,17.70
2018-10-12T07:09:25.792Z,16.10
2018-10-12T07:11:54.454Z,15.57
2018-10-12T07:14:23.159Z,17.03
2018-10-12T07:16:52.038Z,16.57
2018-10-12T07:19:20.791Z,16.07
2018-10-12T07:21:49.563Z,14.20
2018-10-12T07:24:18.231Z,16.27
2018-10-12T07:26:47.013Z,14.47
2018-10-12T07:29:15.748Z,15.30
2018-10-12T07:31:44.464Z,15.03
2018-10-12T07:34:13.265Z,16.42
2018-10-12T07:36:42.287Z,17.57
2018-10-12T07:39:11.050Z,18.73
2018-10-12T07:41:39.851Z,18.27
2018-10-12T07:44:08.662Z,18.77
2018-10-12T07:46:37.419Z,16.73
2018-10-12T07:49:06.455Z,15.10
2018-10-12T07:51:35.303Z,15.73
2018-10-12T07:54:04.045Z,14.87
2018-10-12T07:56:33.623Z,14.80
2018-10-12T07:59:02.401Z,16.33
2018-10-12T08:01:31.148Z,14.90
2018-10-12T08:03:59.920Z,15.07
2018-10-12T08:06:28.544Z,15.60
2018-10-12T08:08:57.335Z,15.33
2018-10-12T08:11:26.119Z,15.30
2018-10-12T08:13:54.890Z,15.17
2018-10-12T08:16:23.698Z,14.20
2018-10-12T08:18:52.572Z,13.90
2018-10-12T08:21:21.482Z,15.50
2018-10-12T08:23:50.382Z,14.00
2018-10-12T08:26:19.142Z,14.43
2018-10-12T08:28:47.819Z,15.60
2018-10-12T08:31:16.714Z,14.03
2018-10-12T08:33:45.518Z,12.70
2018-10-12T08:36:14.407Z,14.40
2018-10-12T08:38:43.086Z,13.90
2018-10-12T08:41:11.884Z,15.27
2018-10-12T08:43:40.493Z,12.03
2018-10-12T08:46:09.267Z,12.53
2018-10-12T08:48:38.096Z,11.50
2018-10-12T08:51:06.840Z,12.93
2018-10-12T08:53:35.562Z,13.00
2018-10-12T08:56:04.416Z,12.93
2018-10-12T08:58:33.176Z,12.97
2018-10-12T09:01:01.855Z,13.20
2018-10-12T09:03:30.580Z,12.83
2018-10-12T09:05:59.237Z,12.67
2018-10-12T09:08:28.137Z,12.77
2018-10-12T09:10:56.723Z,11.87
2018-10-12T09:13:25.607Z,13.57
2018-10-12T09:15:54.500Z,12.80
2018-10-12T09:18:23.290Z,13.27
2018-10-12T09:20:52.176Z,12.83
2018-10-12T09:23:20.915Z,12.30
2018-10-12T09:25:49.627Z,13.40
2018-10-12T09:28:18.449Z,13.80
2018-10-12T09:30:47.474Z,13.63
2018-10-12T09:33:16.256Z,13.03
2018-10-12T09:35:45.170Z,14.93
2018-10-12T09:38:13.789Z,13.47
2018-10-12T09:40:42.590Z,12.87
2018-10-12T09:43:11.410Z,12.40
2018-10-12T09:45:40.257Z,13.43
2018-10-12T09:48:09.455Z,12.60
2018-10-12T09:50:38.276Z,11.93
2018-10-12T09:53:06.993Z,13.17
2018-10-12T09:55:35.715Z,11.50
2018-10-12T09:58:04.616Z,11.70
2018-10-12T10:00:38.704Z,10.93
2018-10-12T10:03:12.828Z,11.70
2018-10-12T10:05:41.527Z,11.97
2018-10-12T10:08:10.418Z,13.57
2018-10-12T10:10:39.104Z,13.00
2018-10-12T10:13:08.302Z,11.30
2018-10-12T10:15:37.136Z,11.25
2018-10-12T10:18:05.907Z,10.82
2018-10-12T10:20:34.869Z,10.45
2018-10-12T10:23:03.563Z,10.08
2018-10-12T10:25:32.406Z,10.70
2018-10-12T10:28:01.130Z,10.00
2018-10-12T10:30:30.015Z,10.90
2018-10-12T10:32:58.786Z,10.33
2018-10-12T10:35:27.593Z,9.27
2018-10-12T10:37:56.177Z,9.43
2018-10-12T10:40:25.147Z,8.40
2018-10-12T10:42:53.859Z,8.37
2018-10-12T10:45:22.880Z,8.00
2018-10-12T10:47:51.825Z,7.47
2018-10-12T10:50:20.736Z,6.83
2018-10-12T10:52:49.376Z,6.40
2018-10-12T10:55:17.966Z,7.83
2018-10-12T10:57:46.829Z,6.10
2018-10-12T11:00:15.484Z,7.08
2018-10-12T11:02:44.155Z,6.42
2018-10-12T11:05:12.764Z,7.53
2018-10-12T11:07:41.506Z,7.08
2018-10-12T11:10:10.416Z,5.87
2018-10-12T11:12:39.239Z,6.70
2018-10-12T11:15:08.284Z,5.83
2018-10-12T11:17:37.276Z,6.30
2018-10-12T11:20:06.264Z,6.00
2018-10-12T11:22:35.171Z,6.35
2018-10-12T11:25:03.891Z,6.17
2018-10-12T11:27:32.724Z,5.97
2018-10-12T11:30:01.585Z,6.42
2018-10-12T11:32:30.534Z,6.33
2018-10-12T11:34:59.445Z,6.45
2018-10-12T11:37:28.412Z,6.42
2018-10-12T11:39:57.092Z,6.72
2018-10-12T11:42:35.514Z,7.05
2018-10-12T11:45:04.339Z,6.47
2018-10-12T11:47:33.276Z,7.17
2018-10-12T11:50:02.131Z,6.67
2018-10-12T11:52:31.366Z,6.12
2018-10-12T11:55:00.166Z,7.03
2018-10-12T11:57:29.032Z,6.83
2018-10-12T11:59:57.824Z,7.22
2018-10-12T12:02:26.409Z,6.85
2018-10-12T12:04:55.096Z,7.08
2018-10-12T12:07:23.867Z,7.10
2018-10-12T12:09:52.769Z,6.83
2018-10-12T12:12:21.529Z,7.15
2018-10-12T12:14:50.208Z,6.80
2018-10-12T12:17:18.984Z,6.87
2018-10-12T12:19:47.942Z,6.87
2018-10-12T12:22:16.697Z,6.25
2018-10-12T12:24:45.801Z,6.45
2018-10-12T12:27:14.724Z,6.97
2018-10-12T12:29:43.507Z,6.28
2018-10-12T12:32:12.081Z,6.80
2018-10-12T12:34:41.026Z,6.17
2018-10-12T12:37:09.658Z,6.40
2018-10-12T12:39:38.388Z,6.60
2018-10-12T12:42:07.036Z,6.03
2018-10-12T12:44:35.741Z,6.53
2018-10-12T12:47:04.561Z,6.58
2018-10-12T12:49:33.611Z,6.62
2018-10-12T12:52:02.053Z,6.92
2018-10-12T12:54:30.934Z,6.75
2018-10-12T12:56:59.713Z,6.70
2018-10-12T12:59:28.388Z,7.10
2018-10-12T13:01:57.147Z,7.17
2018-10-12T13:04:25.809Z,6.93
2018-10-12T13:06:54.532Z,6.43
2018-10-12T13:09:23.385Z,7.30
2018-10-12T13:11:52.171Z,7.60
2018-10-12T13:14:20.980Z,7.33
2018-10-12T13:16:49.850Z,7.20
2018-10-12T13:19:18.589Z,7.27
2018-10-12T13:21:47.511Z,7.37
2018-10-12T13:24:16.755Z,7.53
2018-10-12T13:26:45.590Z,7.10
2018-10-12T13:29:14.244Z,7.40
2018-10-12T13:31:43.180Z,7.00
2018-10-12T13:34:11.977Z,7.13
2018-10-12T13:36:40.685Z,7.17
2018-10-12T13:39:11.246Z,6.90
2018-10-12T13:41:39.962Z,6.63
2018-10-12T13:44:09.523Z,6.20
2018-10-12T13:46:38.519Z,6.73
2018-10-12T13:49:07.681Z,7.17
2018-10-12T13:51:36.432Z,7.20
2018-10-12T13:54:05.271Z,5.97
2018-10-12T13:56:33.867Z,6.40
2018-10-12T13:59:02.701Z,6.53
2018-10-12T14:01:31.441Z,6.50
2018-10-12T14:04:00.304Z,6.23
2018-10-12T14:06:29.044Z,6.50
2018-10-12T14:08:57.873Z,6.27
2018-10-12T14:11:26.847Z,6.97
2018-10-12T14:13:55.652Z,6.33
2018-10-12T14:16:24.472Z,7.00
2018-10-12T14:18:53.699Z,7.03
2018-10-12T14:21:22.221Z,7.70
2018-10-12T14:23:51.001Z,8.27
2018-10-12T14:26:19.687Z,7.60
2018-10-12T14:28:48.472Z,8.13
2018-10-12T14:31:17.124Z,8.33
2018-10-12T14:33:45.870Z,8.70
2018-10-12T14:36:14.727Z,7.90
2018-10-12T14:38:43.396Z,8.53
2018-10-12T14:41:12.112Z,9.13
2018-10-12T14:43:40.869Z,9.77
2018-10-12T14:46:09.732Z,9.40
2018-10-12T14:48:38.360Z,9.10
2018-10-12T14:51:07.574Z,10.00
2018-10-12T14:53:36.659Z,9.47
2018-10-12T14:56:05.444Z,10.33
2018-10-12T14:58:34.447Z,10.40
2018-10-12T15:01:03.111Z,10.73
2018-10-12T15:03:31.754Z,9.70
2018-10-12T15:06:00.463Z,11.40
2018-10-12T15:08:29.187Z,10.93
2018-10-12T15:10:58.090Z,11.83
2018-10-12T15:13:26.764Z,12.20
2018-10-12T15:15:55.477Z,12.67
2018-10-12T15:18:24.129Z,12.13
2018-10-12T15:20:52.823Z,10.67
2018-10-12T15:23:21.757Z,11.90
2018-10-12T15:25:50.406Z,12.00
2018-10-12T15:28:19.144Z,12.10
2018-10-12T15:30:47.768Z,12.33
2018-10-12T15:33:16.705Z,12.43
2018-10-12T15:35:45.384Z,14.07
2018-10-12T15:38:14.212Z,11.70
2018-10-12T15:40:43.015Z,10.53
2018-10-12T15:43:11.990Z,12.47
2018-10-12T15:45:40.956Z,13.43
2018-10-12T15:48:09.644Z,12.03
2018-10-12T15:50:38.354Z,12.73
2018-10-12T15:53:07.120Z,13.93
2018-10-12T15:55:35.959Z,19.57
2018-10-12T15:58:04.693Z,14.40
2018-10-12T16:00:33.522Z,13.97
2018-10-12T16:03:02.321Z,15.25
2018-10-12T16:05:31.199Z,14.90
2018-10-12T16:07:59.902Z,13.93
2018-10-12T16:10:28.717Z,14.13
2018-10-12T16:12:57.815Z,15.83
2018-10-12T16:15:26.541Z,15.27
2018-10-12T16:17:55.344Z,15.57
2018-10-12T16:20:24.190Z,14.40
2018-10-12T16:22:52.959Z,15.53
2018-10-12T16:26:00.213Z,17.20
2018-10-12T16:28:29.006Z,16.07
2018-10-12T16:30:57.935Z,17.93
2018-10-12T16:33:26.656Z,18.90
2018-10-12T16:35:56.610Z,19.47
2018-10-12T16:38:25.484Z,18.40
2018-10-12T16:40:54.270Z,18.37
2018-10-12T16:43:23.242Z,18.63
2018-10-12T16:45:52.558Z,17.87
2018-10-12T16:48:21.319Z,18.10
2018-10-12T16:50:50.233Z,17.40
2018-10-12T16:53:19.125Z,17.53
2018-10-12T16:55:48.027Z,17.20
2018-10-12T16:58:16.867Z,17.67
2018-10-12T17:00:45.680Z,17.03
2018-10-12T17:03:14.548Z,17.20
2018-10-12T17:05:43.456Z,17.60
2018-10-12T17:08:12.156Z,17.10
2018-10-12T17:10:40.979Z,19.73
2018-10-12T17:13:09.785Z,19.93
2018-10-12T17:15:38.536Z,18.50
2018-10-12T17:18:07.330Z,18.23
2018-10-12T17:20:36.183Z,19.87
2018-10-12T17:23:05.082Z,20.17
2018-10-12T17:25:33.851Z,21.30
2018-10-12T17:28:02.616Z,20.73
2018-10-12T17:30:31.345Z,19.00
2018-10-12T17:33:00.050Z,20.67
2018-10-12T17:35:28.718Z,19.73
2018-10-12T17:37:57.606Z,20.03
2018-10-12T17:40:26.296Z,19.67
2018-10-12T17:42:55.131Z,20.70
2018-10-12T17:45:23.901Z,20.57
2018-10-12T17:47:52.644Z,21.30
2018-10-12T17:50:21.463Z,21.50
2018-10-12T17:52:50.123Z,20.23
2018-10-12T17:55:18.905Z,19.43
2018-10-12T17:57:47.639Z,20.00
2018-10-12T18:00:16.567Z,20.23
2018-10-12T18:02:45.208Z,21.17
2018-10-12T18:05:13.973Z,21.27
2018-10-12T18:07:42.636Z,21.97
2018-10-12T18:10:11.831Z,21.37
2018-10-12T18:12:40.537Z,20.83
2018-10-12T18:15:10.813Z,25.05
2018-10-12T18:17:39.951Z,22.37
2018-10-12T18:20:09.212Z,23.73
2018-10-12T18:22:37.785Z,22.33
2018-10-12T18:25:06.954Z,24.20
2018-10-12T18:27:35.651Z,22.27
2018-10-12T18:30:04.780Z,21.83
2018-10-12T18:32:33.811Z,22.33
2018-10-12T18:35:02.532Z,22.40
2018-10-12T18:37:31.483Z,25.70
2018-10-12T18:40:00.301Z,24.77
2018-10-12T18:42:29.140Z,24.07
2018-10-12T18:44:57.885Z,24.23
2018-10-12T18:47:26.707Z,27.07
2018-10-12T18:49:55.264Z,29.03
2018-10-12T18:52:24.256Z,26.90
2018-10-12T18:54:53.000Z,24.97
2018-10-12T18:57:21.660Z,25.80
2018-10-12T18:59:50.502Z,24.23
2018-10-12T19:02:19.118Z,23.63
2018-10-12T19:04:47.962Z,22.30
2018-10-12T19:07:16.688Z,22.73
2018-10-12T19:09:45.491Z,23.37
2018-10-12T19:12:14.271Z,24.83
2018-10-12T19:14:43.080Z,25.67
2018-10-12T19:17:11.812Z,23.43
2018-10-12T19:19:40.647Z,23.37
2018-10-12T19:22:09.528Z,27.40
2018-10-12T19:24:38.464Z,23.83
2018-10-12T19:27:07.276Z,23.60
2018-10-12T19:29:35.991Z,24.50
2018-10-12T19:32:04.813Z,23.93
2018-10-12T19:34:33.609Z,23.33
2018-10-12T19:37:02.359Z,23.00
2018-10-12T19:39:30.867Z,24.47
2018-10-12T19:41:59.772Z,24.53
2018-10-12T19:44:28.395Z,24.50
2018-10-12T19:46:57.237Z,25.00
2018-10-12T19:49:27.289Z,23.70
2018-10-12T19:51:55.980Z,24.03
2018-10-12T19:54:24.599Z,24.27
2018-10-12T19:56:53.393Z,24.57
2018-10-12T19:59:22.108Z,28.53
2018-10-12T20:01:51.316Z,39.00
2018-10-12T20:04:20.373Z,27.37
2018-10-12T20:06:49.069Z,29.63
2018-10-12T20:09:17.853Z,28.27
2018-10-12T20:11:46.536Z,28.33
2018-10-12T20:14:15.271Z,29.30
2018-10-12T20:16:44.181Z,29.37
2018-10-12T20:19:13.003Z,28.10
2018-10-12T20:21:41.879Z,29.40
2018-10-12T20:24:10.576Z,37.23
2018-10-12T20:26:39.534Z,46.47
2018-10-12T20:29:08.275Z,53.13
2018-10-12T20:31:37.048Z,49.93
2018-10-12T20:34:05.855Z,48.73
2018-10-12T20:36:34.799Z,43.10
2018-10-12T20:39:04.232Z,41.97
2018-10-12T20:41:32.815Z,41.30
2018-10-12T20:44:01.679Z,38.13
2018-10-12T20:46:30.328Z,32.60
2018-10-12T20:48:59.317Z,30.57
2018-10-12T20:51:28.047Z,32.13
2018-10-12T20:53:56.971Z,31.23
2018-10-12T20:56:25.752Z,28.30
2018-10-12T20:58:54.424Z,27.87
2018-10-12T21:01:23.365Z,25.60
2018-10-12T21:03:52.260Z,24.90
2018-10-12T21:06:21.202Z,23.43
2018-10-12T21:08:49.911Z,23.10
2018-10-12T21:11:18.518Z,25.53
2018-10-12T21:13:47.373Z,26.50
2018-10-12T21:16:16.583Z,27.17
2018-10-12T21:18:45.341Z,27.63
2018-10-12T21:21:14.298Z,26.90
2018-10-12T21:23:43.004Z,26.27
2018-10-12T21:26:11.921Z,25.40
2018-10-12T21:28:40.609Z,25.40
2018-10-12T21:31:09.343Z,23.97
2018-10-12T21:33:38.066Z,25.63
2018-10-12T21:36:06.705Z,25.80
2018-10-12T21:38:35.334Z,25.13
2018-10-12T21:41:04.225Z,25.13
2018-10-12T21:43:32.926Z,24.40
2018-10-12T21:46:01.596Z,23.77
2018-10-12T21:48:30.342Z,26.30
2018-10-12T21:50:58.903Z,27.03
2018-10-12T21:53:27.491Z,27.83
2018-10-12T21:55:56.436Z,27.50
2018-10-12T21:58:25.104Z,28.50
2018-10-12T22:00:59.476Z,31.03
2018-10-12T22:03:28.081Z,32.90
2018-10-12T22:05:57.003Z,30.03
2018-10-12T22:08:31.049Z,31.13
2018-10-12T22:10:59.875Z,30.97
2018-10-12T22:13:28.652Z,29.87
2018-10-12T22:15:57.654Z,33.37
2018-10-12T22:18:26.592Z,27.83
2018-10-12T22:20:55.480Z,27.43
2018-10-12T22:23:24.148Z,25.37
2018-10-12T22:25:52.931Z,25.37
2018-10-12T22:28:21.665Z,26.07
2018-10-12T22:30:50.513Z,25.07
2018-10-12T22:33:19.337Z,25.63
2018-10-12T22:35:48.136Z,26.53
2018-10-12T22:38:17.002Z,25.60
2018-10-12T22:40:45.663Z,25.43
2018-10-12T22:43:14.468Z,27.17
2018-10-12T22:45:43.226Z,26.63
2018-10-12T22:48:12.373Z,25.20
2018-10-12T22:50:41.063Z,24.63
2018-10-12T22:53:09.733Z,24.57
2018-10-12T22:55:38.490Z,23.30
2018-10-12T22:58:07.226Z,22.90
2018-10-12T23:00:35.914Z,22.43
2018-10-12T23:03:04.763Z,22.90
2018-10-12T23:05:33.535Z,22.07
2018-10-12T23:08:02.421Z,22.17
2018-10-12T23:10:31.152Z,21.63
2018-10-12T23:12:59.914Z,21.13
2018-10-12T23:15:28.767Z,22.00
2018-10-12T23:17:57.668Z,22.17
2018-10-12T23:20:26.441Z,22.20
2018-10-12T23:22:55.337Z,23.00
2018-10-12T23:25:24.064Z,23.13
2018-10-12T23:27:52.746Z,22.47
2018-10-12T23:30:21.512Z,22.70
2018-10-12T23:32:50.512Z,21.53
2018-10-12T23:35:19.319Z,22.33
2018-10-12T23:37:48.259Z,21.70
2018-10-12T23:40:16.979Z,23.17
2018-10-12T23:42:45.854Z,22.17
2018-10-12T23:45:14.661Z,23.03
2018-10-12T23:47:43.544Z,23.53
2018-10-12T23:50:12.215Z,24.90
2018-10-12T23:52:41.282Z,26.83
2018-10-12T23:55:09.841Z,26.37
2018-10-12T23:57:38.688Z,25.97
